createdAt,value
2022-12-27T00:04:57.671Z,3.29
2022-12-27T00:09:59.359Z,3.24
2022-12-27T00:15:01.039Z,3.20
2022-12-27T00:20:10.639Z,3.27
2022-12-27T00:25:13.285Z,3.30
2022-12-27T00:30:15.629Z,3.38
2022-12-27T00:35:17.334Z,3.28
2022-12-27T00:40:18.933Z,3.16
2022-12-27T00:45:20.512Z,3.02
2022-12-27T00:50:22.122Z,2.96
2022-12-27T00:55:23.835Z,2.92
2022-12-27T01:00:25.441Z,2.88
2022-12-27T01:05:27.026Z,2.77
2022-12-27T01:10:28.636Z,2.74
2022-12-27T01:15:30.395Z,2.72
2022-12-27T01:20:32.024Z,2.73
2022-12-27T01:25:33.657Z,2.74
2022-12-27T01:30:35.424Z,2.76
2022-12-27T01:35:37.569Z,2.66
2022-12-27T01:40:39.359Z,2.53
2022-12-27T01:45:41.052Z,2.39
2022-12-27T01:50:48.664Z,2.14
2022-12-27T01:55:58.851Z,1.90
2022-12-27T02:01:00.605Z,1.73
2022-12-27T02:06:04.415Z,1.67
2022-12-27T02:11:07.713Z,1.67
2022-12-27T02:16:18.905Z,1.73
2022-12-27T02:21:38.843Z,1.54
2022-12-27T02:26:52.147Z,1.49
2022-12-27T02:32:12.256Z,1.48
2022-12-27T02:37:14.423Z,1.42
2022-12-27T02:42:36.789Z,1.33
2022-12-27T02:47:57.472Z,1.23
2022-12-27T02:53:28.108Z,1.23
2022-12-27T02:59:11.287Z,1.19
2022-12-27T03:04:26.205Z,1.14
2022-12-27T03:09:46.441Z,1.06
2022-12-27T03:15:08.751Z,0.96
2022-12-27T03:20:33.942Z,0.91
2022-12-27T03:25:37.201Z,0.85
2022-12-27T03:30:59.445Z,0.71
2022-12-27T03:36:42.203Z,0.65
2022-12-27T03:42:08.777Z,0.60
2022-12-27T03:47:35.069Z,0.54
2022-12-27T03:52:48.560Z,0.42
2022-12-27T03:57:50.736Z,0.34
2022-12-27T04:02:52.479Z,0.22
2022-12-27T04:08:12.717Z,0.14
2022-12-27T04:13:33.011Z,0.10
2022-12-27T04:18:53.232Z,0.11
2022-12-27T04:24:13.539Z,0.17
2022-12-27T04:29:33.634Z,0.23
2022-12-27T04:34:42.283Z,0.31
2022-12-27T04:40:04.054Z,0.46
2022-12-27T04:45:24.823Z,0.49
2022-12-27T04:50:48.725Z,0.50
2022-12-27T04:55:50.321Z,0.36
2022-12-27T05:01:14.352Z,0.29
2022-12-27T05:06:17.329Z,0.33
2022-12-27T05:11:37.497Z,0.29
2022-12-27T05:16:44.016Z,0.24
2022-12-27T05:22:04.170Z,0.24
2022-12-27T05:27:05.764Z,0.23
2022-12-27T05:32:12.782Z,0.25
2022-12-27T05:37:14.987Z,0.32
2022-12-27T05:42:16.652Z,0.33
2022-12-27T05:47:18.265Z,0.21
2022-12-27T05:52:19.895Z,0.21
2022-12-27T05:57:21.521Z,0.24
2022-12-27T06:02:23.270Z,0.20
2022-12-27T06:07:24.959Z,0.17
2022-12-27T06:12:27.775Z,0.18
2022-12-27T06:17:29.424Z,0.24
2022-12-27T06:22:30.990Z,0.23
2022-12-27T06:27:32.588Z,0.24
2022-12-27T06:32:35.355Z,0.22
2022-12-27T06:37:36.930Z,0.16
2022-12-27T06:42:38.610Z,0.10
2022-12-27T06:47:40.219Z,0.19
2022-12-27T06:52:41.820Z,0.23
2022-12-27T06:57:43.496Z,0.31
2022-12-27T07:02:45.138Z,0.33
2022-12-27T07:07:46.961Z,0.46
2022-12-27T07:12:48.580Z,0.64
2022-12-27T07:17:50.408Z,0.80
2022-12-27T07:22:52.011Z,0.87
2022-12-27T07:27:54.383Z,0.97
2022-12-27T07:32:56.074Z,1.01
2022-12-27T07:37:57.741Z,1.11
2022-12-27T07:42:59.315Z,1.17
2022-12-27T07:48:00.937Z,1.25
2022-12-27T07:53:02.663Z,1.36
2022-12-27T07:58:04.322Z,1.44
2022-12-27T08:03:05.979Z,1.49
2022-12-27T08:08:09.113Z,1.51
2022-12-27T08:13:10.761Z,1.41
2022-12-27T08:18:12.337Z,1.33
2022-12-27T08:23:14.047Z,1.31
2022-12-27T08:28:17.697Z,1.33
2022-12-27T08:33:20.027Z,1.33
2022-12-27T08:38:21.861Z,1.40
2022-12-27T08:43:23.445Z,1.61
2022-12-27T08:48:25.116Z,1.71
2022-12-27T08:53:26.714Z,1.77
2022-12-27T08:58:28.346Z,1.74
2022-12-27T09:03:29.975Z,1.75
2022-12-27T09:08:31.609Z,1.73
2022-12-27T09:13:33.692Z,1.90
2022-12-27T09:18:35.903Z,1.95
2022-12-27T09:23:38.404Z,1.99
2022-12-27T09:28:41.311Z,2.04
2022-12-27T09:33:43.127Z,2.20
2022-12-27T09:38:45.590Z,2.45
2022-12-27T09:44:05.707Z,2.53
2022-12-27T09:49:14.093Z,2.75
2022-12-27T09:54:23.961Z,3.01
2022-12-27T09:59:40.345Z,2.93
2022-12-27T10:05:10.301Z,2.92
2022-12-27T10:10:14.825Z,3.04
2022-12-27T10:15:41.368Z,3.40
2022-12-27T10:20:58.120Z,3.15
2022-12-27T10:26:07.574Z,3.14
2022-12-27T10:31:16.013Z,3.21
2022-12-27T10:36:28.449Z,3.44
2022-12-27T10:41:33.522Z,3.27
2022-12-27T10:46:35.400Z,3.19
2022-12-27T10:51:41.400Z,3.50
2022-12-27T10:56:45.165Z,3.69
2022-12-27T11:01:50.088Z,3.79
2022-12-27T11:07:04.452Z,3.94
2022-12-27T11:12:20.920Z,3.94
2022-12-27T11:17:43.920Z,3.69
2022-12-27T11:22:50.535Z,3.84
2022-12-27T11:27:55.750Z,4.75
2022-12-27T11:33:06.326Z,4.73
2022-12-27T11:38:24.666Z,5.15
2022-12-27T11:43:32.996Z,5.51
2022-12-27T11:48:42.456Z,5.41
2022-12-27T11:54:07.908Z,5.53
2022-12-27T11:59:28.300Z,5.24
2022-12-27T12:05:03.333Z,4.64
2022-12-27T12:10:32.742Z,4.68
2022-12-27T12:15:59.496Z,4.06
2022-12-27T12:21:26.032Z,3.84
2022-12-27T12:26:58.602Z,4.03
2022-12-27T12:32:33.811Z,3.88
2022-12-27T12:38:01.722Z,3.83
2022-12-27T12:43:37.671Z,3.85
2022-12-27T12:48:51.683Z,3.92
2022-12-27T12:54:05.739Z,4.10
2022-12-27T12:59:29.318Z,4.26
2022-12-27T13:04:40.403Z,4.26
2022-12-27T13:09:53.135Z,4.23
2022-12-27T13:15:07.165Z,4.38
2022-12-27T13:20:43.731Z,4.51
2022-12-27T13:26:00.618Z,4.49
2022-12-27T13:31:23.242Z,4.47
2022-12-27T13:36:35.945Z,4.48
2022-12-27T13:42:19.395Z,4.35
2022-12-27T13:47:41.529Z,4.30
2022-12-27T13:53:14.022Z,4.33
2022-12-27T13:58:40.112Z,4.31
2022-12-27T14:04:17.920Z,4.24
2022-12-27T14:09:58.231Z,4.16
2022-12-27T14:15:04.487Z,4.04
2022-12-27T14:20:18.907Z,3.96
2022-12-27T14:25:51.988Z,3.86
2022-12-27T14:31:27.941Z,3.75
2022-12-27T14:36:35.819Z,3.79
2022-12-27T14:42:02.477Z,3.86
2022-12-27T14:47:25.282Z,3.89
2022-12-27T14:52:48.457Z,3.89
2022-12-27T14:58:11.922Z,3.95
2022-12-27T15:03:44.689Z,3.90
2022-12-27T15:09:09.386Z,3.83
2022-12-27T15:14:17.654Z,3.86
2022-12-27T15:19:44.751Z,3.86
2022-12-27T15:24:52.698Z,3.82
2022-12-27T15:30:19.328Z,3.76
2022-12-27T15:35:51.997Z,3.62
2022-12-27T15:41:09.012Z,3.39
2022-12-27T15:46:23.269Z,3.29
2022-12-27T15:51:40.752Z,3.22
2022-12-27T15:56:58.190Z,3.17
2022-12-27T16:02:27.344Z,3.11
2022-12-27T16:07:36.681Z,3.04
2022-12-27T16:12:39.701Z,2.94
2022-12-27T16:17:55.976Z,2.92
2022-12-27T16:23:02.276Z,2.89
2022-12-27T16:28:16.312Z,2.86
2022-12-27T16:33:27.263Z,2.85
2022-12-27T16:38:30.825Z,2.88
2022-12-27T16:43:48.173Z,2.98
2022-12-27T16:49:25.458Z,3.13
2022-12-27T16:54:47.962Z,3.23
2022-12-27T17:00:05.504Z,3.28
2022-12-27T17:05:36.188Z,3.25
2022-12-27T17:10:51.639Z,3.32
2022-12-27T17:15:56.734Z,3.41
2022-12-27T17:21:07.821Z,3.39
2022-12-27T17:26:24.264Z,3.44
2022-12-27T17:31:46.986Z,3.46
2022-12-27T17:37:03.865Z,3.46
2022-12-27T17:42:40.317Z,3.46
2022-12-27T17:48:00.897Z,3.48
2022-12-27T17:53:30.459Z,3.51
2022-12-27T17:58:34.929Z,3.48
2022-12-27T18:03:42.178Z,3.51
2022-12-27T18:08:47.876Z,3.39
2022-12-27T18:13:53.853Z,3.25
2022-12-27T18:18:59.941Z,3.14
2022-12-27T18:24:01.905Z,3.04
2022-12-27T18:29:05.300Z,2.94
2022-12-27T18:34:20.789Z,2.85
2022-12-27T18:39:33.708Z,2.70
2022-12-27T18:44:47.305Z,2.67
2022-12-27T18:50:01.095Z,2.61
2022-12-27T18:55:17.591Z,2.65
2022-12-27T19:00:25.733Z,2.61
2022-12-27T19:05:29.335Z,2.48
2022-12-27T19:10:33.590Z,2.45
2022-12-27T19:15:44.092Z,2.43
2022-12-27T19:20:54.312Z,2.39
2022-12-27T19:26:03.019Z,2.46
2022-12-27T19:31:09.668Z,2.60
2022-12-27T19:36:11.664Z,2.63
2022-12-27T19:41:16.573Z,2.56
2022-12-27T19:46:19.344Z,2.48
2022-12-27T19:51:21.360Z,2.33
2022-12-27T19:56:23.230Z,2.26
2022-12-27T20:01:25.404Z,2.19
2022-12-27T20:06:28.465Z,2.10
2022-12-27T20:11:30.315Z,2.06
2022-12-27T20:16:32.245Z,2.00
2022-12-27T20:21:34.075Z,1.95
2022-12-27T20:26:35.871Z,1.82
2022-12-27T20:31:44.502Z,1.48
2022-12-27T20:36:46.650Z,1.09
2022-12-27T20:41:48.473Z,1.06
2022-12-27T20:46:50.777Z,1.32
2022-12-27T20:51:52.870Z,1.63
2022-12-27T20:56:54.663Z,2.00
2022-12-27T21:01:57.431Z,2.16
2022-12-27T21:06:59.357Z,2.10
2022-12-27T21:12:01.168Z,1.99
2022-12-27T21:17:03.376Z,1.91
2022-12-27T21:22:05.232Z,1.82
2022-12-27T21:27:07.025Z,2.00
2022-12-27T21:32:08.827Z,2.13
2022-12-27T21:37:13.562Z,2.29
2022-12-27T21:42:15.591Z,2.33
2022-12-27T21:47:17.409Z,2.26
2022-12-27T21:52:19.175Z,2.24
2022-12-27T21:57:20.959Z,2.24
2022-12-27T22:02:22.868Z,2.31
2022-12-27T22:07:24.793Z,2.44
2022-12-27T22:12:26.598Z,2.50
2022-12-27T22:17:28.376Z,2.50
2022-12-27T22:22:32.317Z,2.51
2022-12-27T22:27:34.146Z,2.48
2022-12-27T22:32:35.916Z,2.48
2022-12-27T22:37:37.776Z,2.51
2022-12-27T22:42:39.450Z,2.52
2022-12-27T22:47:41.096Z,2.49
2022-12-27T22:52:47.132Z,2.50
2022-12-27T22:57:48.721Z,2.56
2022-12-27T23:02:50.340Z,2.59
2022-12-27T23:08:06.057Z,2.58
2022-12-27T23:13:10.717Z,2.58
2022-12-27T23:18:12.321Z,2.48
2022-12-27T23:23:14.411Z,2.48
2022-12-27T23:28:16.009Z,2.50
2022-12-27T23:33:17.625Z,2.41
2022-12-27T23:38:19.241Z,2.45
2022-12-27T23:43:50.984Z,2.57
2022-12-27T23:48:43.666Z,2.67
2022-12-27T23:53:45.328Z,2.85
2022-12-27T23:58:48.860Z,2.89
